Time;durP1;ratioP1;P1;durP2;ratioP2;P2;SDS_P1;SDS_P2;PMS_P1;PMS_P2;Temp;Humidity;BMP_temperature;BMP_pressure;BME280_temperature;BME280_humidity;BME280_pressure;Samples;Min_cycle;Max_cycle;Signal;HPM_P1;HPM_P2
2020/12/11 00:01:36;;;;;;;11.85;6.97;;;15.00;59.70;;;;;;5018660;28;20029;-66
2020/12/11 00:04:02;;;;;;;12.13;7.32;;;15.00;59.70;;;;;;5018005;28;20025;-66
2020/12/11 00:06:27;;;;;;;13.48;7.90;;;14.90;59.60;;;;;;5032079;28;20029;-69
2020/12/11 00:08:53;;;;;;;12.82;7.68;;;14.90;59.70;;;;;;5011661;28;20037;-64
2020/12/11 00:11:29;;;;;;;12.68;7.55;;;14.90;59.60;;;;;;5029439;28;20498;-65
2020/12/11 00:13:55;;;;;;;12.43;7.13;;;14.90;59.70;;;;;;5017493;28;20029;-66
2020/12/11 00:16:21;;;;;;;10.52;6.50;;;14.90;59.70;;;;;;5010230;28;20545;-65
2020/12/11 00:18:46;;;;;;;12.23;7.50;;;14.80;59.50;;;;;;5011401;28;20112;-65
2020/12/11 00:21:12;;;;;;;13.85;7.05;;;14.90;59.60;;;;;;5011468;28;20030;-68
2020/12/11 00:23:37;;;;;;;10.75;6.55;;;14.80;59.30;;;;;;5011530;28;20108;-65
2020/12/11 00:26:03;;;;;;;13.10;7.40;;;14.80;59.20;;;;;;5011919;28;20390;-65
2020/12/11 00:28:29;;;;;;;12.93;7.78;;;14.80;59.30;;;;;;5011862;28;20029;-65
2020/12/11 00:30:56;;;;;;;13.05;7.80;;;14.80;59.10;;;;;;5011946;28;20121;-65
2020/12/11 00:33:23;;;;;;;12.07;7.35;;;14.80;59.00;;;;;;5014792;28;20037;-65
2020/12/11 00:35:49;;;;;;;13.15;7.47;;;14.80;59.00;;;;;;5015233;28;20431;-64
2020/12/11 00:38:14;;;;;;;11.10;6.88;;;14.80;58.90;;;;;;5010215;28;20041;-65
2020/12/11 00:40:40;;;;;;;11.27;6.93;;;14.80;59.00;;;;;;5011871;28;20029;-67
2020/12/11 00:43:05;;;;;;;11.68;7.22;;;14.80;58.90;;;;;;5023661;28;20041;-64
2020/12/11 00:45:32;;;;;;;10.52;6.47;;;14.80;59.00;;;;;;5011697;28;20431;-65
2020/12/11 00:47:58;;;;;;;10.15;6.70;;;14.80;59.00;;;;;;5009539;28;20128;-67
2020/12/11 00:50:23;;;;;;;12.07;7.47;;;14.80;59.10;;;;;;5012218;28;20042;-65
2020/12/11 00:52:49;;;;;;;12.65;7.50;;;14.70;59.00;;;;;;5018697;28;20021;-65
2020/12/11 00:55:16;;;;;;;12.52;7.18;;;14.70;58.70;;;;;;5029700;28;20045;-61
2020/12/11 00:57:42;;;;;;;11.82;7.05;;;14.70;58.80;;;;;;5009714;28;20117;-65
2020/12/11 01:00:11;;;;;;;12.82;8.05;;;14.70;58.90;;;;;;5011740;28;20601;-64
2020/12/11 01:02:37;;;;;;;11.55;6.93;;;14.70;58.90;;;;;;5010136;28;20030;-63
2020/12/11 01:05:02;;;;;;;12.15;8.07;;;14.70;58.40;;;;;;5018698;28;20079;-66
2020/12/11 01:07:28;;;;;;;12.52;7.75;;;14.60;58.00;;;;;;5021278;28;20387;-63
2020/12/11 01:09:53;;;;;;;12.77;7.97;;;14.60;57.60;;;;;;5026336;28;20030;-62
2020/12/11 01:12:19;;;;;;;14.02;8.00;;;14.60;57.80;;;;;;5004390;28;20109;-62
2020/12/11 01:14:44;;;;;;;11.15;7.13;;;14.60;58.00;;;;;;5011200;28;20022;-65
2020/12/11 01:17:10;;;;;;;12.40;6.90;;;14.60;58.00;;;;;;5010694;28;20046;-65
2020/12/11 01:19:35;;;;;;;11.75;7.45;;;14.60;57.90;;;;;;5009941;28;20034;-65
2020/12/11 01:22:04;;;;;;;11.88;7.40;;;14.60;58.20;;;;;;5011605;28;20037;-69
2020/12/11 01:24:33;;;;;;;11.88;6.95;;;14.60;58.20;;;;;;5010293;28;20033;-65
2020/12/11 01:26:58;;;;;;;12.13;7.45;;;14.60;58.40;;;;;;5009291;28;20096;-65
2020/12/11 01:29:24;;;;;;;12.20;7.45;;;14.60;58.20;;;;;;5029922;28;20494;-65
2020/12/11 01:31:54;;;;;;;10.35;6.55;;;14.60;58.30;;;;;;5029403;28;20030;-65
2020/12/11 01:34:19;;;;;;;10.75;7.13;;;14.60;58.50;;;;;;5011950;28;20053;-65
2020/12/11 01:36:45;;;;;;;11.73;7.63;;;14.60;58.40;;;;;;5022597;28;20061;-67
2020/12/11 01:39:10;;;;;;;12.85;7.43;;;14.60;58.50;;;;;;5011698;28;20045;-64
2020/12/11 01:41:36;;;;;;;11.18;6.97;;;14.60;58.30;;;;;;5010595;28;20083;-66
2020/12/11 01:44:09;;;;;;;11.85;6.93;;;14.60;58.40;;;;;;5010396;28;20380;-67
2020/12/11 01:46:40;;;;;;;13.10;7.32;;;14.60;58.70;;;;;;4991151;28;20037;-63
2020/12/11 01:49:08;;;;;;;10.60;6.90;;;14.60;58.80;;;;;;5008474;28;20034;-65
2020/12/11 01:51:34;;;;;;;10.85;6.38;;;14.60;58.80;;;;;;5011795;28;20106;-62
2020/12/11 01:54:00;;;;;;;11.73;6.80;;;14.60;58.80;;;;;;5008237;28;20113;-63
2020/12/11 01:56:30;;;;;;;11.50;7.18;;;14.60;58.90;;;;;;5010389;28;20109;-67
2020/12/11 01:59:02;;;;;;;13.32;7.45;;;14.60;58.70;;;;;;5010380;28;20455;-65
2020/12/11 02:01:30;;;;;;;11.35;7.25;;;14.50;58.60;;;;;;5010498;28;20022;-67
2020/12/11 02:03:56;;;;;;;12.35;7.03;;;14.50;58.70;;;;;;5010361;28;20026;-65
2020/12/11 02:06:22;;;;;;;10.63;6.90;;;14.50;58.50;;;;;;5009913;28;20033;-65
2020/12/11 02:12:09;;;;;;;11.00;6.68;;;14.50;58.20;;;;;;5009291;28;20127;-65
2020/12/11 02:14:36;;;;;;;12.65;8.05;;;14.50;58.20;;;;;;5010015;28;20089;-65
2020/12/11 02:17:04;;;;;;;12.10;7.43;;;14.40;57.60;;;;;;5010447;28;20034;-63
2020/12/11 02:19:30;;;;;;;11.00;7.45;;;14.50;57.70;;;;;;5010156;28;20466;-65
2020/12/11 02:21:58;;;;;;;12.27;7.65;;;14.40;57.70;;;;;;5011740;28;20060;-63
2020/12/11 02:24:24;;;;;;;12.70;8.30;;;14.40;57.70;;;;;;5014628;28;20033;-65
2020/12/11 02:26:56;;;;;;;11.70;7.18;;;14.40;57.80;;;;;;5010220;28;20030;-64
2020/12/11 02:29:22;;;;;;;10.25;6.75;;;14.40;57.90;;;;;;5004528;28;20041;-63
2020/12/11 02:31:48;;;;;;;11.55;7.20;;;14.40;58.00;;;;;;5011693;28;20038;-64
2020/12/11 02:34:14;;;;;;;11.95;7.35;;;14.40;58.10;;;;;;5009867;28;20442;-65
2020/12/11 02:36:39;;;;;;;11.77;7.28;;;14.40;58.00;;;;;;5010377;28;20022;-64
2020/12/11 02:39:05;;;;;;;11.90;8.18;;;14.50;58.40;;;;;;5009612;28;20032;-63
2020/12/11 02:41:30;;;;;;;13.73;7.18;;;14.40;58.20;;;;;;5009605;28;20423;-63
2020/12/11 02:43:56;;;;;;;12.27;7.53;;;14.40;58.10;;;;;;5009739;28;20029;-64
2020/12/11 02:46:21;;;;;;;10.90;6.95;;;14.40;57.60;;;;;;5009776;28;20034;-66
2020/12/11 02:48:47;;;;;;;12.25;7.43;;;14.40;57.90;;;;;;5011047;28;20030;-63
2020/12/11 02:51:12;;;;;;;11.25;7.25;;;14.40;57.60;;;;;;5009937;28;20026;-63
2020/12/11 02:53:39;;;;;;;11.20;7.20;;;14.30;57.80;;;;;;5009361;28;20495;-66
2020/12/11 02:56:04;;;;;;;13.35;8.50;;;14.30;57.10;;;;;;5012544;28;20052;-65
2020/12/11 02:58:30;;;;;;;10.93;6.65;;;14.30;57.40;;;;;;5016183;28;20109;-63
2020/12/11 03:00:55;;;;;;;12.07;7.53;;;14.30;57.50;;;;;;5012620;28;20118;-63
2020/12/11 03:03:21;;;;;;;10.75;6.97;;;14.30;56.90;;;;;;5013080;28;20040;-63
2020/12/11 03:05:46;;;;;;;11.32;7.45;;;14.30;57.00;;;;;;5013262;28;20034;-66
2020/12/11 03:08:12;;;;;;;11.60;7.05;;;14.30;57.10;;;;;;5012703;28;20557;-60
2020/12/11 03:10:37;;;;;;;11.35;7.03;;;14.30;56.90;;;;;;5012779;28;20061;-63
2020/12/11 03:13:03;;;;;;;12.48;8.07;;;14.30;57.10;;;;;;5012833;28;20145;-63
2020/12/11 03:15:28;;;;;;;12.40;6.93;;;14.30;56.80;;;;;;5012514;28;20026;-66
2020/12/11 03:17:54;;;;;;;12.13;7.38;;;14.30;57.10;;;;;;5011912;28;20084;-63
2020/12/11 03:20:22;;;;;;;12.60;7.10;;;14.30;57.10;;;;;;5012798;28;20026;-63
2020/12/11 03:22:52;;;;;;;12.63;8.15;;;14.20;57.30;;;;;;5013836;28;20105;-61
2020/12/11 03:25:18;;;;;;;11.13;7.53;;;14.20;57.30;;;;;;5012986;28;20026;-63
2020/12/11 03:27:44;;;;;;;11.02;6.72;;;14.30;57.70;;;;;;5013020;28;20037;-63
2020/12/11 03:30:09;;;;;;;11.32;7.45;;;14.30;57.50;;;;;;5013261;28;20022;-62
2020/12/11 03:32:36;;;;;;;10.73;6.78;;;14.30;57.50;;;;;;5013226;28;20541;-61
2020/12/11 03:35:01;;;;;;;12.50;7.40;;;14.20;57.10;;;;;;5012407;28;20026;-63
2020/12/11 03:37:27;;;;;;;10.35;6.93;;;14.30;57.30;;;;;;5012212;28;20092;-65
2020/12/11 03:39:52;;;;;;;13.38;7.10;;;14.20;57.40;;;;;;5012667;28;20116;-63
2020/12/11 03:42:18;;;;;;;12.10;7.60;;;14.20;57.30;;;;;;5012869;28;20639;-62
2020/12/11 03:44:43;;;;;;;12.57;7.72;;;14.20;56.80;;;;;;5012350;28;20044;-63
2020/12/11 03:47:09;;;;;;;12.70;7.13;;;14.20;56.70;;;;;;5012002;28;20032;-63
2020/12/11 03:49:34;;;;;;;11.00;7.00;;;14.20;57.00;;;;;;5013559;28;20431;-62
2020/12/11 03:52:00;;;;;;;11.48;8.05;;;14.10;56.90;;;;;;5012487;28;20156;-63
2020/12/11 03:54:25;;;;;;;12.07;7.38;;;14.10;56.70;;;;;;5011581;28;20028;-64
2020/12/11 03:56:51;;;;;;;11.20;6.97;;;14.20;56.70;;;;;;5011817;28;20401;-64
2020/12/11 03:59:16;;;;;;;10.38;6.60;;;14.20;56.80;;;;;;5011771;28;20136;-63
2020/12/11 04:01:42;;;;;;;11.32;7.15;;;14.20;57.00;;;;;;5014388;28;20026;-64
2020/12/11 04:04:08;;;;;;;13.85;6.85;;;14.20;57.00;;;;;;5025553;28;20028;-65
2020/12/11 04:06:33;;;;;;;10.30;6.80;;;14.20;57.10;;;;;;5029595;28;20033;-65
2020/12/11 04:08:59;;;;;;;10.05;6.65;;;14.20;57.20;;;;;;5012832;28;20026;-62
2020/12/11 04:11:24;;;;;;;10.98;7.38;;;14.20;57.20;;;;;;5011822;28;20030;-63
2020/12/11 04:13:50;;;;;;;10.82;6.75;;;14.20;57.20;;;;;;5031814;28;20025;-65
2020/12/11 04:16:16;;;;;;;11.43;7.13;;;14.20;57.30;;;;;;5015938;28;20018;-63
2020/12/11 04:18:41;;;;;;;11.50;7.35;;;14.20;57.10;;;;;;5011898;28;20033;-63
2020/12/11 04:21:14;;;;;;;11.30;6.80;;;14.20;57.20;;;;;;5011842;28;20065;-63
2020/12/11 04:23:41;;;;;;;10.82;6.57;;;14.20;57.40;;;;;;5021627;28;20084;-62
2020/12/11 04:26:06;;;;;;;10.50;7.03;;;14.10;57.30;;;;;;5011786;28;20113;-63
2020/12/11 04:28:32;;;;;;;10.95;7.38;;;14.10;57.20;;;;;;5011548;28;20469;-63
2020/12/11 04:30:58;;;;;;;10.88;6.60;;;14.10;57.60;;;;;;5011905;28;20040;-64
2020/12/11 04:33:23;;;;;;;11.00;6.88;;;14.10;57.50;;;;;;5012670;28;20075;-63
2020/12/11 04:35:49;;;;;;;9.93;6.43;;;14.10;57.40;;;;;;5027553;28;20619;-63
2020/12/11 04:38:15;;;;;;;10.93;6.57;;;14.10;57.60;;;;;;5011454;28;20105;-63
2020/12/11 04:40:41;;;;;;;12.38;6.93;;;14.10;57.50;;;;;;5011364;28;20054;-64
2020/12/11 04:43:09;;;;;;;11.45;6.85;;;14.00;57.40;;;;;;5011318;28;20519;-63
2020/12/11 04:45:40;;;;;;;10.77;6.57;;;14.00;57.00;;;;;;4999831;28;20033;-63
2020/12/11 04:48:09;;;;;;;10.38;7.05;;;14.00;57.00;;;;;;5010899;28;20037;-64
2020/12/11 04:50:36;;;;;;;10.90;7.00;;;14.00;57.10;;;;;;5011270;28;20044;-63
2020/12/11 04:53:03;;;;;;;10.65;6.40;;;14.00;56.80;;;;;;5022196;28;20032;-65
2020/12/11 04:55:33;;;;;;;11.00;7.05;;;14.00;56.70;;;;;;5021666;28;20090;-63
2020/12/11 04:58:05;;;;;;;9.75;6.60;;;14.00;56.90;;;;;;5021564;28;20068;-64
2020/12/11 05:00:31;;;;;;;10.07;6.78;;;14.00;57.10;;;;;;5010531;28;20028;-63
2020/12/11 05:02:57;;;;;;;11.70;7.07;;;14.00;56.80;;;;;;5002938;28;20109;-63
2020/12/11 05:05:22;;;;;;;12.05;7.80;;;13.90;56.70;;;;;;5009251;28;20455;-64
2020/12/11 05:07:48;;;;;;;13.73;7.97;;;14.00;56.50;;;;;;5009888;28;20120;-65
2020/12/11 05:10:14;;;;;;;11.77;7.50;;;13.90;56.20;;;;;;5010783;28;20588;-65
2020/12/11 05:12:39;;;;;;;12.05;7.07;;;13.90;56.50;;;;;;5010881;28;20026;-65
2020/12/11 05:15:10;;;;;;;11.57;7.97;;;13.90;56.70;;;;;;5009903;28;20030;-62
2020/12/11 05:17:41;;;;;;;11.03;7.20;;;13.90;56.50;;;;;;5010320;28;20474;-65
2020/12/11 05:20:09;;;;;;;10.82;6.60;;;13.80;56.50;;;;;;5010806;28;20395;-66
2020/12/11 05:22:36;;;;;;;11.68;7.68;;;13.90;56.80;;;;;;5008419;28;20076;-63
2020/12/11 05:25:05;;;;;;;12.45;6.72;;;13.90;56.70;;;;;;5004058;28;20061;-64
2020/12/11 05:27:41;;;;;;;12.00;7.32;;;13.90;56.80;;;;;;5004435;28;20044;-63
2020/12/11 05:30:15;;;;;;;13.05;7.38;;;13.90;56.80;;;;;;5001732;28;20105;-63
2020/12/11 05:32:49;;;;;;;16.40;7.00;;;13.90;56.80;;;;;;5004133;28;20030;-65
2020/12/11 05:35:17;;;;;;;18.50;6.57;;;14.00;57.50;;;;;;5003786;28;20058;-63
2020/12/11 05:37:50;;;;;;;12.20;6.10;;;14.00;57.30;;;;;;5003853;28;20052;-63
2020/12/11 05:40:22;;;;;;;12.85;5.97;;;14.10;57.40;;;;;;5007368;28;20840;-63
2020/12/11 05:43:12;;;;;;;13.65;6.97;;;14.20;57.50;;;;;;4995284;28;20034;-64
2020/12/11 05:45:54;;;;;;;10.48;5.72;;;14.30;56.90;;;;;;5012285;28;20026;-66
2020/12/11 05:48:24;;;;;;;9.90;5.80;;;14.30;56.60;;;;;;5000665;28;20040;-63
2020/12/11 05:50:50;;;;;;;12.63;6.10;;;14.30;56.10;;;;;;5002532;28;20030;-63
2020/12/11 05:53:16;;;;;;;10.52;5.47;;;14.30;56.60;;;;;;5004017;28;20113;-64
2020/12/11 05:55:41;;;;;;;11.68;5.65;;;14.40;56.20;;;;;;5002080;28;20141;-64
2020/12/11 05:58:10;;;;;;;18.17;5.57;;;14.40;56.60;;;;;;5003083;28;20547;-63
2020/12/11 06:00:36;;;;;;;18.08;6.28;;;14.40;56.40;;;;;;5003238;28;20033;-67
2020/12/11 06:03:02;;;;;;;17.77;9.15;;;14.50;56.30;;;;;;5003473;28;20091;-64
2020/12/11 06:05:28;;;;;;;13.10;7.43;;;14.50;55.60;;;;;;5012977;28;20537;-67
2020/12/11 06:07:53;;;;;;;15.73;7.30;;;14.40;55.70;;;;;;5005870;28;20619;-64
2020/12/11 06:10:21;;;;;;;12.98;7.10;;;14.50;55.80;;;;;;5002743;28;20080;-64
2020/12/11 06:12:47;;;;;;;20.02;6.82;;;14.50;56.20;;;;;;5002186;28;20030;-63
2020/12/11 06:15:21;;;;;;;17.08;6.50;;;14.60;56.00;;;;;;5004083;28;20054;-63
2020/12/11 06:17:53;;;;;;;12.93;6.05;;;14.60;55.50;;;;;;5002968;28;20037;-64
2020/12/11 06:20:20;;;;;;;18.38;6.53;;;14.70;56.80;;;;;;5006653;28;20034;-63
2020/12/11 06:22:45;;;;;;;13.93;6.05;;;14.80;56.20;;;;;;5003437;28;20065;-62
2020/12/11 06:25:31;;;;;;;13.68;5.78;;;14.80;56.80;;;;;;5003385;28;20714;-62
2020/12/11 06:27:58;;;;;;;19.63;6.45;;;14.90;56.30;;;;;;5001573;28;20052;-63
2020/12/11 06:30:29;;;;;;;18.17;6.65;;;15.00;57.00;;;;;;5015485;28;20875;-68
2020/12/11 06:32:56;;;;;;;14.82;6.18;;;15.00;56.60;;;;;;5007498;28;20038;-63
2020/12/11 06:35:23;;;;;;;16.60;5.95;;;15.10;57.00;;;;;;5005695;28;20030;-63
2020/12/11 06:37:48;;;;;;;14.57;6.45;;;15.10;57.10;;;;;;5007096;28;20037;-64
2020/12/11 06:40:14;;;;;;;16.50;6.03;;;15.10;56.80;;;;;;5007212;28;20038;-63
2020/12/11 06:42:42;;;;;;;13.68;6.30;;;15.10;56.50;;;;;;5005348;28;20044;-65
2020/12/11 06:45:21;;;;;;;13.82;5.47;;;15.10;57.20;;;;;;5007014;28;20327;-63
2020/12/11 06:47:49;;;;;;;13.50;5.95;;;15.10;57.30;;;;;;5006712;28;20088;-63
2020/12/11 06:50:17;;;;;;;10.60;5.68;;;15.10;57.00;;;;;;5005203;28;20057;-65
2020/12/11 06:52:43;;;;;;;12.65;7.32;;;15.10;56.60;;;;;;5015501;28;20017;-63
2020/12/11 06:55:09;;;;;;;13.13;6.13;;;15.00;56.20;;;;;;5011521;28;20030;-65
2020/12/11 06:57:36;;;;;;;14.95;6.13;;;15.00;56.10;;;;;;5007076;28;20383;-64
2020/12/11 07:00:30;;;;;;;35.45;8.43;;;15.00;56.10;;;;;;5009714;28;20104;-65
2020/12/11 07:03:16;;;;;;;24.48;7.72;;;15.00;56.30;;;;;;5006031;28;20494;-63
2020/12/11 07:05:42;;;;;;;18.05;6.60;;;14.90;55.60;;;;;;5007114;28;20041;-63
2020/12/11 07:08:12;;;;;;;14.63;5.75;;;14.90;56.00;;;;;;5007208;28;20046;-64
2020/12/11 07:10:38;;;;;;;13.85;5.88;;;14.90;56.50;;;;;;5007253;28;20034;-63
2020/12/11 07:13:09;;;;;;;12.02;5.80;;;14.90;56.20;;;;;;5005441;28;20038;-64
2020/12/11 07:15:35;;;;;;;17.15;6.85;;;14.90;55.80;;;;;;5006985;28;20033;-67
2020/12/11 07:18:01;;;;;;;19.92;7.25;;;14.90;55.80;;;;;;5007180;28;20092;-63
2020/12/11 07:20:26;;;;;;;14.23;7.45;;;14.90;55.20;;;;;;5006997;28;20429;-63
2020/12/11 07:22:54;;;;;;;15.15;7.25;;;14.80;55.00;;;;;;5017716;28;20168;-65
2020/12/11 07:25:21;;;;;;;15.88;8.63;;;14.80;54.70;;;;;;5025020;28;20051;-63
2020/12/11 07:27:57;;;;;;;19.05;8.52;;;14.80;54.50;;;;;;5024952;28;20034;-63
2020/12/11 07:30:23;;;;;;;17.35;8.10;;;14.70;53.70;;;;;;5024669;28;20022;-64
2020/12/11 07:32:52;;;;;;;16.77;7.93;;;14.70;54.10;;;;;;5024819;28;20083;-63
2020/12/11 07:35:18;;;;;;;17.65;6.75;;;14.70;54.10;;;;;;5009805;28;20038;-63
2020/12/11 07:37:55;;;;;;;13.20;6.88;;;14.60;54.30;;;;;;5004966;28;20036;-63
2020/12/11 07:40:22;;;;;;;12.10;6.63;;;14.60;54.60;;;;;;5005062;28;20026;-63
2020/12/11 07:42:49;;;;;;;13.13;6.32;;;14.60;54.70;;;;;;5006109;28;20033;-62
2020/12/11 07:45:33;;;;;;;11.10;6.28;;;14.50;54.90;;;;;;5004829;28;20034;-64
2020/12/11 07:47:59;;;;;;;10.68;6.30;;;14.60;55.20;;;;;;5004990;28;20137;-63
2020/12/11 07:50:27;;;;;;;11.77;6.75;;;14.60;55.30;;;;;;5006795;28;20038;-63
2020/12/11 07:52:56;;;;;;;9.45;6.18;;;14.50;55.30;;;;;;5005042;28;20034;-63
2020/12/11 07:55:23;;;;;;;11.63;6.30;;;14.50;55.10;;;;;;4985380;28;20030;-63
2020/12/11 07:57:54;;;;;;;10.18;6.13;;;14.40;55.00;;;;;;4984924;28;20061;-63
2020/12/11 08:00:20;;;;;;;11.82;6.50;;;14.40;54.90;;;;;;4985003;28;20285;-63
2020/12/11 08:02:51;;;;;;;10.00;6.00;;;14.40;55.00;;;;;;4985117;28;20058;-64
2020/12/11 08:05:17;;;;;;;10.27;6.10;;;14.40;54.50;;;;;;4985007;28;20330;-63
2020/12/11 08:07:48;;;;;;;10.57;6.40;;;14.30;54.10;;;;;;4984818;28;20142;-64
2020/12/11 08:10:22;;;;;;;9.95;6.75;;;14.30;54.30;;;;;;4985068;28;20026;-63
2020/12/11 08:12:49;;;;;;;11.38;6.10;;;14.30;54.20;;;;;;4984415;28;20027;-63
2020/12/11 08:15:32;;;;;;;9.18;5.82;;;14.30;54.50;;;;;;4985012;28;20100;-64
2020/12/11 08:18:07;;;;;;;9.60;5.95;;;14.20;53.80;;;;;;4986418;28;20061;-63
2020/12/11 08:20:53;;;;;;;9.30;5.88;;;14.30;54.20;;;;;;4986732;28;20069;-63
2020/12/11 08:23:35;;;;;;;10.07;5.95;;;14.20;53.90;;;;;;5024349;28;20364;-63
2020/12/11 08:26:11;;;;;;;8.52;5.40;;;14.30;54.30;;;;;;5006734;28;20041;-62
2020/12/11 08:28:37;;;;;;;10.88;5.60;;;14.30;54.40;;;;;;5005647;28;20029;-63
2020/12/11 08:31:24;;;;;;;8.40;5.18;;;14.30;54.40;;;;;;5005651;28;20209;-64
2020/12/11 08:34:20;;;;;;;9.07;5.85;;;14.30;54.70;;;;;;5014513;28;20030;-63
2020/12/11 08:36:46;;;;;;;8.27;5.28;;;14.30;54.70;;;;;;5014875;28;20521;-64
2020/12/11 08:39:30;;;;;;;8.23;5.22;;;14.30;54.60;;;;;;5023555;28;20124;-62
2020/12/11 08:48:04;;;;;;;10.15;5.78;;;14.30;54.90;;;;;;5025317;28;20037;-63
2020/12/11 08:50:26;;;;;;;9.07;5.10;;;14.30;55.20;;;;;;5022449;28;20036;-63
2020/12/11 08:52:52;;;;;;;8.75;5.15;;;14.30;55.00;;;;;;5024539;28;20633;-63
2020/12/11 08:55:17;;;;;;;9.13;5.90;;;14.20;54.40;;;;;;5016964;28;20029;-63
2020/12/11 08:57:43;;;;;;;9.32;5.22;;;14.20;54.80;;;;;;5004017;28;20040;-63
2020/12/11 09:00:08;;;;;;;9.95;5.53;;;14.30;55.10;;;;;;5005639;28;20034;-63
2020/12/11 09:02:34;;;;;;;8.02;5.30;;;14.20;54.70;;;;;;5004013;28;20113;-64
2020/12/11 09:05:00;;;;;;;8.18;5.35;;;14.20;54.50;;;;;;5005524;28;20155;-63
2020/12/11 09:07:25;;;;;;;8.48;5.43;;;14.20;54.20;;;;;;5003756;28;20022;-63
2020/12/11 09:09:52;;;;;;;8.55;5.80;;;14.20;54.30;;;;;;5005320;28;20468;-68
2020/12/11 09:12:18;;;;;;;9.60;5.85;;;14.10;54.10;;;;;;5005214;28;20483;-64
2020/12/11 09:14:44;;;;;;;8.38;5.75;;;14.10;54.50;;;;;;5006755;28;20025;-61
2020/12/11 09:17:09;;;;;;;8.82;5.75;;;14.10;53.90;;;;;;5024777;28;20413;-63
2020/12/11 09:19:35;;;;;;;8.52;5.75;;;14.10;54.30;;;;;;5024931;28;20021;-63
2020/12/11 09:22:01;;;;;;;7.75;5.20;;;14.10;54.10;;;;;;5023490;28;20021;-63
2020/12/11 09:24:29;;;;;;;9.05;5.57;;;14.10;54.10;;;;;;5024646;28;20025;-63
2020/12/11 09:26:56;;;;;;;8.90;5.75;;;14.10;54.20;;;;;;5005219;28;20034;-63
2020/12/11 09:29:32;;;;;;;8.15;5.35;;;14.10;54.00;;;;;;5003253;28;20126;-63
2020/12/11 09:32:00;;;;;;;8.63;5.32;;;14.10;54.10;;;;;;5005091;28;20018;-64
2020/12/11 09:34:26;;;;;;;9.20;5.65;;;14.00;54.10;;;;;;5005198;28;20029;-64
2020/12/11 09:36:52;;;;;;;7.95;5.18;;;14.00;53.70;;;;;;5021655;28;20017;-62
2020/12/11 09:39:18;;;;;;;8.68;5.43;;;14.00;54.10;;;;;;5023340;28;20067;-63
2020/12/11 09:41:52;;;;;;;9.63;6.13;;;14.10;54.10;;;;;;5019164;28;20014;-63
2020/12/11 09:47:27;;;;;;;9.05;5.38;;;14.10;53.40;;;;;;5001460;28;20018;-63
2020/12/11 09:50:07;;;;;;;9.35;5.43;;;14.20;53.60;;;;;;5004540;28;20041;-62
2020/12/11 09:55:01;;;;;;;8.82;4.85;;;14.40;53.60;;;;;;4999755;28;20694;-64
2020/12/11 09:57:27;;;;;;;9.02;4.55;;;14.60;53.70;;;;;;5003771;28;20109;-64
2020/12/11 09:59:55;;;;;;;9.23;5.28;;;14.70;53.60;;;;;;5002466;28;20032;-64
2020/12/11 10:02:47;;;;;;;8.70;4.70;;;14.70;52.90;;;;;;5003474;28;20076;-63
2020/12/11 10:05:13;;;;;;;9.45;4.68;;;14.80;53.30;;;;;;5007324;28;20391;-63
2020/12/11 10:07:38;;;;;;;8.02;4.40;;;14.90;53.40;;;;;;5006114;28;20072;-64
2020/12/11 10:10:04;;;;;;;8.98;4.47;;;14.90;53.80;;;;;;5006956;28;20025;-65
2020/12/11 10:12:30;;;;;;;8.00;4.53;;;15.00;53.20;;;;;;5006925;28;20018;-63
2020/12/11 10:15:05;;;;;;;8.40;5.35;;;15.00;52.90;;;;;;5005478;28;20434;-63
2020/12/11 10:17:30;;;;;;;13.07;5.45;;;15.00;53.10;;;;;;5006564;28;20037;-63
2020/12/11 10:19:56;;;;;;;9.05;5.25;;;15.00;52.90;;;;;;5006020;28;20578;-63
2020/12/11 10:22:21;;;;;;;11.73;4.95;;;15.10;52.50;;;;;;5008034;28;20454;-63
2020/12/11 10:24:47;;;;;;;8.77;5.18;;;15.10;52.30;;;;;;5023473;28;20099;-63
2020/12/11 10:27:13;;;;;;;10.30;4.97;;;15.10;52.50;;;;;;5027613;28;20208;-62
2020/12/11 10:29:39;;;;;;;9.88;5.70;;;15.10;52.50;;;;;;5026248;28;20029;-63
2020/12/11 10:32:05;;;;;;;8.95;5.15;;;15.20;52.60;;;;;;5027908;28;20026;-63
2020/12/11 10:34:31;;;;;;;9.32;5.05;;;15.20;52.60;;;;;;5025849;28;20372;-64
2020/12/11 10:36:57;;;;;;;9.27;5.22;;;15.10;52.10;;;;;;5027582;28;20045;-62
2020/12/11 10:39:22;;;;;;;9.85;5.15;;;15.10;52.40;;;;;;5026349;28;20057;-62
2020/12/11 10:41:48;;;;;;;7.78;5.05;;;15.20;52.50;;;;;;5027239;28;20029;-63
2020/12/11 10:44:13;;;;;;;8.75;5.13;;;15.20;52.30;;;;;;5027136;28;20449;-62
2020/12/11 10:46:39;;;;;;;8.57;5.07;;;15.10;52.60;;;;;;5025120;28;20045;-63
2020/12/11 10:49:04;;;;;;;13.43;5.10;;;15.10;52.50;;;;;;5026923;28;20034;-63
2020/12/11 10:51:31;;;;;;;7.97;4.90;;;15.10;52.70;;;;;;5027410;28;20025;-62
2020/12/11 10:53:57;;;;;;;7.68;4.68;;;15.10;52.90;;;;;;5027015;28;20517;-63
2020/12/11 10:56:22;;;;;;;8.15;5.00;;;15.00;52.50;;;;;;5025473;28;20029;-63
2020/12/11 10:58:48;;;;;;;7.18;4.40;;;15.00;52.60;;;;;;5026857;28;20029;-62
2020/12/11 11:01:14;;;;;;;9.52;4.60;;;15.00;52.60;;;;;;5026960;28;20106;-63
2020/12/11 11:03:40;;;;;;;7.32;4.97;;;15.00;52.60;;;;;;5026803;28;20495;-62
2020/12/11 11:06:18;;;;;;;8.48;5.53;;;15.00;52.50;;;;;;5026901;28;20529;-62
2020/12/11 11:08:54;;;;;;;8.23;4.72;;;15.00;52.60;;;;;;5026798;28;20033;-63
2020/12/11 11:11:21;;;;;;;7.80;4.97;;;15.00;52.70;;;;;;5026355;28;20083;-61
2020/12/11 11:22:14;;;;;;;11.63;6.75;;;14.80;51.80;;;;;;5018754;28;20475;-62
2020/12/11 11:29:43;;;;;;;11.48;6.30;;;14.80;52.10;;;;;;5006703;28;20395;-62
2020/12/11 11:32:08;;;;;;;12.48;6.05;;;14.70;51.70;;;;;;5006532;28;20022;-63
2020/12/11 11:34:34;;;;;;;9.30;5.72;;;14.70;52.30;;;;;;5004728;28;20022;-63
2020/12/11 11:36:59;;;;;;;11.02;5.65;;;14.60;52.20;;;;;;5006713;28;20026;-62
2020/12/11 11:39:25;;;;;;;10.32;5.72;;;14.60;52.50;;;;;;5006505;28;20538;-63
2020/12/11 11:41:57;;;;;;;10.77;6.22;;;14.60;52.40;;;;;;5006587;28;20018;-63
2020/12/11 11:46:52;;;;;;;14.05;6.75;;;14.50;52.70;;;;;;5006714;28;20266;-62
2020/12/11 11:49:24;;;;;;;14.07;6.38;;;14.50;52.10;;;;;;5006406;28;20047;-63
2020/12/11 11:54:38;;;;;;;16.00;6.13;;;14.40;52.20;;;;;;5006131;28;20411;-63
2020/12/11 11:57:03;;;;;;;11.90;6.72;;;14.50;52.10;;;;;;5006622;28;20022;-63
2020/12/11 11:59:29;;;;;;;11.05;5.93;;;14.50;50.70;;;;;;5004794;28;20513;-63
2020/12/11 12:01:55;;;;;;;13.80;6.00;;;14.40;52.40;;;;;;5006463;28;20033;-62
2020/12/11 12:04:21;;;;;;;12.38;6.57;;;14.40;52.40;;;;;;5006171;28;20391;-61
2020/12/11 12:06:47;;;;;;;14.23;6.55;;;14.40;52.70;;;;;;5004744;28;20022;-62
2020/12/11 12:09:12;;;;;;;14.63;6.28;;;14.40;52.80;;;;;;5006062;28;20040;-61
2020/12/11 12:11:38;;;;;;;16.50;7.25;;;14.40;52.00;;;;;;5004335;28;20036;-61
2020/12/11 12:14:03;;;;;;;14.80;7.18;;;14.40;52.10;;;;;;5004187;28;20053;-62
2020/12/11 12:16:29;;;;;;;19.85;7.55;;;14.40;52.60;;;;;;5005353;28;20034;-63
2020/12/11 12:18:57;;;;;;;13.60;7.25;;;14.50;53.50;;;;;;5004641;28;20025;-62
2020/12/11 12:29:29;;;;;;;11.63;6.75;;;14.50;53.00;;;;;;5005756;28;20084;-62
2020/12/11 12:32:00;;;;;;;13.85;6.63;;;14.50;52.60;;;;;;5005115;28;20490;-63
2020/12/11 12:34:49;;;;;;;11.67;6.80;;;14.40;52.40;;;;;;5004583;28;20026;-62
2020/12/11 12:42:57;;;;;;;13.25;7.53;;;14.30;52.90;;;;;;5005504;28;20076;-63
2020/12/11 12:45:23;;;;;;;14.07;6.72;;;14.30;52.80;;;;;;5005593;28;20041;-63
2020/12/11 12:47:48;;;;;;;11.40;6.43;;;14.30;52.60;;;;;;5005596;28;20141;-63
2020/12/11 12:50:14;;;;;;;13.32;6.63;;;14.30;52.70;;;;;;5003234;28;20037;-63
2020/12/11 12:52:39;;;;;;;10.80;6.30;;;14.40;51.70;;;;;;5005271;28;20030;-62
2020/12/11 12:55:06;;;;;;;11.32;5.97;;;14.40;53.00;;;;;;5003905;28;20072;-63
2020/12/11 12:57:40;;;;;;;14.57;6.60;;;14.30;52.20;;;;;;5004039;28;20037;-63
2020/12/11 13:00:24;;;;;;;16.35;6.95;;;14.40;52.70;;;;;;5005434;28;20129;-62
2020/12/11 13:05:16;;;;;;;15.52;7.05;;;14.40;52.20;;;;;;5012278;28;20036;-63
2020/12/11 13:07:41;;;;;;;13.27;6.85;;;14.40;52.00;;;;;;5024723;28;20037;-63
2020/12/11 13:10:07;;;;;;;12.52;6.63;;;14.40;52.40;;;;;;5024953;28;20029;-63
2020/12/11 13:12:33;;;;;;;11.20;6.35;;;14.40;52.80;;;;;;5007037;28;20121;-63
2020/12/11 13:14:59;;;;;;;24.33;9.07;;;14.40;52.70;;;;;;5011419;28;20037;-64
2020/12/11 13:17:24;;;;;;;19.13;10.48;;;14.40;52.20;;;;;;5004271;28;20041;-66
2020/12/11 13:19:50;;;;;;;15.50;8.10;;;14.40;50.90;;;;;;5003357;28;20748;-64
2020/12/11 13:22:29;;;;;;;17.83;7.93;;;14.30;51.50;;;;;;5004200;28;20709;-62
2020/12/11 13:27:43;;;;;;;12.52;7.00;;;14.40;51.80;;;;;;5004850;28;20037;-62
2020/12/11 13:30:09;;;;;;;13.00;6.50;;;14.50;52.30;;;;;;5004670;28;20049;-63
2020/12/11 13:32:34;;;;;;;10.90;5.93;;;14.50;52.50;;;;;;5008084;28;20494;-65
2020/12/11 13:35:00;;;;;;;11.88;6.57;;;14.60;51.80;;;;;;5024211;28;20024;-65